sensor_id;sensor_type;location;lat;lon;timestamp;pressure;altitude;pressure_sealevel;temperature;humidity
47588;BME280;34356;45.788;12.046;2022-09-09T00:01:51;99848.71;;;22.70;47.00
47588;BME280;34356;45.788;12.046;2022-09-09T00:04:26;99850.33;;;22.91;47.14
47588;BME280;34356;45.788;12.046;2022-09-09T00:07:01;99845.29;;;22.62;47.18
47588;BME280;34356;45.788;12.046;2022-09-09T00:09:32;99842.30;;;22.41;47.17
47588;BME280;34356;45.788;12.046;2022-09-09T00:12:09;99842.16;;;22.59;47.22
47588;BME280;34356;45.788;12.046;2022-09-09T00:14:43;99841.70;;;22.58;47.23
47588;BME280;34356;45.788;12.046;2022-09-09T00:17:23;99842.99;;;22.57;47.26
47588;BME280;34356;45.788;12.046;2022-09-09T00:19:56;99844.36;;;22.54;47.28
47588;BME280;34356;45.788;12.046;2022-09-09T00:22:30;99844.97;;;22.77;47.32
47588;BME280;34356;45.788;12.046;2022-09-09T00:25:06;99846.01;;;22.76;47.33
47588;BME280;34356;45.788;12.046;2022-09-09T00:27:40;99841.18;;;22.75;47.43
47588;BME280;34356;45.788;12.046;2022-09-09T00:30:15;99837.19;;;22.97;47.40
47588;BME280;34356;45.788;12.046;2022-09-09T00:32:43;99836.82;;;22.45;47.52
47588;BME280;34356;45.788;12.046;2022-09-09T00:35:18;99835.98;;;22.80;47.69
47588;BME280;34356;45.788;12.046;2022-09-09T00:37:50;99837.64;;;22.51;47.76
47588;BME280;34356;45.788;12.046;2022-09-09T00:40:24;99838.15;;;22.70;47.80
47588;BME280;34356;45.788;12.046;2022-09-09T00:43:09;99840.38;;;22.41;47.90
47588;BME280;34356;45.788;12.046;2022-09-09T00:45:56;99839.71;;;22.31;48.03
47588;BME280;34356;45.788;12.046;2022-09-09T00:48:33;99840.55;;;22.04;48.01
47588;BME280;34356;45.788;12.046;2022-09-09T00:51:11;99838.83;;;22.32;47.95
47588;BME280;34356;45.788;12.046;2022-09-09T00:54:02;99838.26;;;22.50;47.99
47588;BME280;34356;45.788;12.046;2022-09-09T00:56:37;99837.46;;;22.41;48.04
47588;BME280;34356;45.788;12.046;2022-09-09T00:59:22;99838.84;;;22.36;48.13
47588;BME280;34356;45.788;12.046;2022-09-09T01:01:54;99834.70;;;22.32;48.23
47588;BME280;34356;45.788;12.046;2022-09-09T01:04:27;99839.44;;;22.31;48.21
47588;BME280;34356;45.788;12.046;2022-09-09T01:07:03;99844.34;;;22.06;48.31
47588;BME280;34356;45.788;12.046;2022-09-09T01:09:42;99845.83;;;22.17;48.57
47588;BME280;34356;45.788;12.046;2022-09-09T01:12:16;99846.98;;;22.07;48.74
47588;BME280;34356;45.788;12.046;2022-09-09T01:14:49;99847.78;;;22.01;48.82
47588;BME280;34356;45.788;12.046;2022-09-09T01:17:20;99852.26;;;22.00;48.77
47588;BME280;34356;45.788;12.046;2022-09-09T01:19:59;99853.08;;;22.01;48.89
47588;BME280;34356;45.788;12.046;2022-09-09T01:22:35;99851.48;;;22.05;48.87
47588;BME280;34356;45.788;12.046;2022-09-09T01:25:19;99846.52;;;22.06;48.89
47588;BME280;34356;45.788;12.046;2022-09-09T01:27:50;99846.59;;;22.06;48.92
47588;BME280;34356;45.788;12.046;2022-09-09T01:30:18;99848.12;;;22.07;48.86
47588;BME280;34356;45.788;12.046;2022-09-09T01:32:47;99848.07;;;22.08;48.88
47588;BME280;34356;45.788;12.046;2022-09-09T01:35:31;99846.62;;;21.89;48.74
47588;BME280;34356;45.788;12.046;2022-09-09T01:38:00;99851.27;;;22.11;48.77
47588;BME280;34356;45.788;12.046;2022-09-09T01:40:27;99857.03;;;21.63;48.74
47588;BME280;34356;45.788;12.046;2022-09-09T01:42:54;99856.25;;;22.13;48.79
47588;BME280;34356;45.788;12.046;2022-09-09T01:45:22;99857.20;;;21.91;48.69
47588;BME280;34356;45.788;12.046;2022-09-09T01:47:52;99854.70;;;22.12;48.71
47588;BME280;34356;45.788;12.046;2022-09-09T01:50:20;99851.14;;;22.12;48.66
47588;BME280;34356;45.788;12.046;2022-09-09T01:52:52;99854.05;;;22.33;48.75
47588;BME280;34356;45.788;12.046;2022-09-09T01:55:29;99849.77;;;21.77;48.84
47588;BME280;34356;45.788;12.046;2022-09-09T01:58:08;99845.03;;;21.95;48.86
47588;BME280;34356;45.788;12.046;2022-09-09T02:00:43;99845.13;;;21.96;48.87
47588;BME280;34356;45.788;12.046;2022-09-09T02:03:19;99844.13;;;21.76;48.85
47588;BME280;34356;45.788;12.046;2022-09-09T02:05:53;99847.25;;;22.02;48.80
47588;BME280;34356;45.788;12.046;2022-09-09T02:08:30;99847.70;;;21.14;48.76
47588;BME280;34356;45.788;12.046;2022-09-09T02:11:05;99845.63;;;22.13;48.74
47588;BME280;34356;45.788;12.046;2022-09-09T02:13:36;99844.71;;;21.93;48.68
47588;BME280;34356;45.788;12.046;2022-09-09T02:16:07;99842.81;;;22.14;48.66
47588;BME280;34356;45.788;12.046;2022-09-09T02:18:39;99841.93;;;22.12;48.66
47588;BME280;34356;45.788;12.046;2022-09-09T02:21:08;99835.63;;;21.84;48.69
47588;BME280;34356;45.788;12.046;2022-09-09T02:23:37;99830.91;;;22.03;48.82
47588;BME280;34356;45.788;12.046;2022-09-09T02:26:06;99830.12;;;22.02;48.77
47588;BME280;34356;45.788;12.046;2022-09-09T02:28:35;99825.18;;;21.96;48.87
47588;BME280;34356;45.788;12.046;2022-09-09T02:31:04;99826.19;;;22.14;49.26
47588;BME280;34356;45.788;12.046;2022-09-09T02:33:35;99825.30;;;21.81;50.00
47588;BME280;34356;45.788;12.046;2022-09-09T02:36:06;99822.95;;;22.10;50.18
47588;BME280;34356;45.788;12.046;2022-09-09T02:38:40;99822.15;;;21.79;50.56
47588;BME280;34356;45.788;12.046;2022-09-09T02:41:09;99819.63;;;21.94;50.68
47588;BME280;34356;45.788;12.046;2022-09-09T02:43:37;99818.66;;;21.67;50.61
47588;BME280;34356;45.788;12.046;2022-09-09T02:46:12;99821.57;;;21.88;50.52
47588;BME280;34356;45.788;12.046;2022-09-09T02:48:52;99820.87;;;21.85;50.64
47588;BME280;34356;45.788;12.046;2022-09-09T02:51:32;99821.09;;;21.33;50.68
47588;BME280;34356;45.788;12.046;2022-09-09T02:54:10;99824.72;;;21.76;50.83
47588;BME280;34356;45.788;12.046;2022-09-09T02:56:46;99826.52;;;21.69;50.90
47588;BME280;34356;45.788;12.046;2022-09-09T02:59:16;99824.87;;;21.63;50.90
47588;BME280;34356;45.788;12.046;2022-09-09T03:01:43;99820.27;;;21.45;50.70
47588;BME280;34356;45.788;12.046;2022-09-09T03:04:11;99814.80;;;21.69;50.72
47588;BME280;34356;45.788;12.046;2022-09-09T03:06:38;99806.07;;;21.67;50.69
47588;BME280;34356;45.788;12.046;2022-09-09T03:09:05;99801.80;;;21.64;50.91
47588;BME280;34356;45.788;12.046;2022-09-09T03:11:31;99804.19;;;21.49;51.13
47588;BME280;34356;45.788;12.046;2022-09-09T03:13:58;99801.93;;;21.67;51.01
47588;BME280;34356;45.788;12.046;2022-09-09T03:16:25;99803.03;;;21.02;51.15
47588;BME280;34356;45.788;12.046;2022-09-09T03:18:52;99804.83;;;21.26;51.00
47588;BME280;34356;45.788;12.046;2022-09-09T03:21:20;99803.01;;;21.38;50.74
47588;BME280;34356;45.788;12.046;2022-09-09T03:23:47;99799.84;;;21.68;50.56
47588;BME280;34356;45.788;12.046;2022-09-09T03:26:14;99800.03;;;21.53;50.32
47588;BME280;34356;45.788;12.046;2022-09-09T03:28:41;99798.52;;;21.79;50.22
47588;BME280;34356;45.788;12.046;2022-09-09T03:31:09;99798.74;;;21.52;50.28
47588;BME280;34356;45.788;12.046;2022-09-09T03:33:36;99797.99;;;21.52;50.24
47588;BME280;34356;45.788;12.046;2022-09-09T03:36:04;99795.71;;;21.54;50.17
47588;BME280;34356;45.788;12.046;2022-09-09T03:38:32;99790.84;;;21.27;50.16
47588;BME280;34356;45.788;12.046;2022-09-09T03:40:59;99791.53;;;21.29;50.06
47588;BME280;34356;45.788;12.046;2022-09-09T03:43:27;99783.95;;;21.31;49.94
47588;BME280;34356;45.788;12.046;2022-09-09T03:45:56;99781.99;;;21.56;49.92
47588;BME280;34356;45.788;12.046;2022-09-09T03:48:24;99777.15;;;21.28;49.93
47588;BME280;34356;45.788;12.046;2022-09-09T03:50:53;99772.13;;;21.54;49.94
47588;BME280;34356;45.788;12.046;2022-09-09T03:53:22;99763.13;;;21.54;49.95
47588;BME280;34356;45.788;12.046;2022-09-09T03:55:52;99757.26;;;21.25;49.99
47588;BME280;34356;45.788;12.046;2022-09-09T03:58:21;99755.99;;;21.67;50.05
47588;BME280;34356;45.788;12.046;2022-09-09T04:00:54;99761.13;;;21.40;50.10
47588;BME280;34356;45.788;12.046;2022-09-09T04:03:22;99759.68;;;21.12;50.16
47588;BME280;34356;45.788;12.046;2022-09-09T04:05:50;99758.98;;;21.70;50.33
47588;BME280;34356;45.788;12.046;2022-09-09T04:08:18;99757.85;;;21.42;50.38
47588;BME280;34356;45.788;12.046;2022-09-09T04:10:45;99752.34;;;21.46;50.33
47588;BME280;34356;45.788;12.046;2022-09-09T04:13:13;99753.02;;;21.60;50.15
47588;BME280;34356;45.788;12.046;2022-09-09T04:15:41;99753.38;;;21.71;49.98
47588;BME280;34356;45.788;12.046;2022-09-09T04:18:09;99755.85;;;21.27;49.94
47588;BME280;34356;45.788;12.046;2022-09-09T04:20:36;99758.67;;;21.37;49.82
47588;BME280;34356;45.788;12.046;2022-09-09T04:23:04;99757.65;;;21.46;49.69
47588;BME280;34356;45.788;12.046;2022-09-09T04:25:30;99756.86;;;21.36;49.56
47588;BME280;34356;45.788;12.046;2022-09-09T04:27:58;99751.60;;;21.67;49.39
47588;BME280;34356;45.788;12.046;2022-09-09T04:30:25;99753.31;;;21.25;49.31
47588;BME280;34356;45.788;12.046;2022-09-09T04:32:53;99761.59;;;21.78;49.18
47588;BME280;34356;45.788;12.046;2022-09-09T04:35:21;99764.38;;;21.80;49.20
47588;BME280;34356;45.788;12.046;2022-09-09T04:37:48;99762.29;;;21.83;49.10
47588;BME280;34356;45.788;12.046;2022-09-09T04:40:15;99762.07;;;21.81;49.09
47588;BME280;34356;45.788;12.046;2022-09-09T04:42:43;99762.34;;;21.77;49.12
47588;BME280;34356;45.788;12.046;2022-09-09T04:45:10;99762.00;;;21.75;49.15
47588;BME280;34356;45.788;12.046;2022-09-09T04:47:38;99760.85;;;21.75;49.12
47588;BME280;34356;45.788;12.046;2022-09-09T04:50:07;99758.48;;;21.76;49.13
47588;BME280;34356;45.788;12.046;2022-09-09T04:52:34;99757.39;;;21.54;49.13
47588;BME280;34356;45.788;12.046;2022-09-09T04:55:02;99752.94;;;21.76;49.15
47588;BME280;34356;45.788;12.046;2022-09-09T04:57:29;99750.16;;;21.79;49.30
47588;BME280;34356;45.788;12.046;2022-09-09T04:59:56;99753.21;;;21.91;49.43
47588;BME280;34356;45.788;12.046;2022-09-09T05:02:24;99758.32;;;21.54;49.48
47588;BME280;34356;45.788;12.046;2022-09-09T05:04:51;99760.31;;;22.08;49.21
47588;BME280;34356;45.788;12.046;2022-09-09T05:07:18;99761.03;;;22.08;49.26
47588;BME280;34356;45.788;12.046;2022-09-09T05:09:45;99762.31;;;22.14;49.18
47588;BME280;34356;45.788;12.046;2022-09-09T05:12:11;99763.07;;;22.25;49.21
47588;BME280;34356;45.788;12.046;2022-09-09T05:14:38;99768.36;;;22.15;48.97
47588;BME280;34356;45.788;12.046;2022-09-09T05:17:05;99775.21;;;22.49;48.84
47588;BME280;34356;45.788;12.046;2022-09-09T05:19:32;99781.93;;;22.08;48.78
47588;BME280;34356;45.788;12.046;2022-09-09T05:21:59;99780.31;;;22.66;48.56
47588;BME280;34356;45.788;12.046;2022-09-09T05:24:26;99781.38;;;22.22;48.45
47588;BME280;34356;45.788;12.046;2022-09-09T05:26:53;99778.15;;;22.49;48.57
47588;BME280;34356;45.788;12.046;2022-09-09T05:29:20;99781.81;;;22.53;48.44
47588;BME280;34356;45.788;12.046;2022-09-09T05:31:48;99783.19;;;22.30;48.53
47588;BME280;34356;45.788;12.046;2022-09-09T05:34:14;99788.88;;;22.41;48.40
47588;BME280;34356;45.788;12.046;2022-09-09T05:36:41;99792.11;;;22.79;48.27
47588;BME280;34356;45.788;12.046;2022-09-09T05:39:08;99798.19;;;22.85;48.13
47588;BME280;34356;45.788;12.046;2022-09-09T05:41:36;99801.59;;;22.77;48.28
47588;BME280;34356;45.788;12.046;2022-09-09T05:44:03;99805.95;;;22.97;48.41
47588;BME280;34356;45.788;12.046;2022-09-09T05:46:29;99801.22;;;22.77;48.36
47588;BME280;34356;45.788;12.046;2022-09-09T05:48:56;99802.49;;;22.79;48.39
47588;BME280;34356;45.788;12.046;2022-09-09T05:51:26;99803.99;;;22.57;48.27
47588;BME280;34356;45.788;12.046;2022-09-09T05:53:53;99801.41;;;22.60;48.26
47588;BME280;34356;45.788;12.046;2022-09-09T05:56:23;99800.94;;;22.64;48.27
47588;BME280;34356;45.788;12.046;2022-09-09T05:58:51;99798.73;;;22.68;48.18
47588;BME280;34356;45.788;12.046;2022-09-09T06:01:20;99801.76;;;23.21;48.21
47588;BME280;34356;45.788;12.046;2022-09-09T06:03:49;99797.09;;;23.03;48.19
47588;BME280;34356;45.788;12.046;2022-09-09T06:06:20;99798.95;;;22.87;48.03
47588;BME280;34356;45.788;12.046;2022-09-09T06:08:50;99795.60;;;22.91;48.00
47588;BME280;34356;45.788;12.046;2022-09-09T06:11:20;99797.89;;;23.50;47.85
47588;BME280;34356;45.788;12.046;2022-09-09T06:13:47;99795.24;;;23.51;47.90
47588;BME280;34356;45.788;12.046;2022-09-09T06:16:17;99790.56;;;23.11;47.75
47588;BME280;34356;45.788;12.046;2022-09-09T06:18:45;99789.56;;;23.04;47.63
47588;BME280;34356;45.788;12.046;2022-09-09T06:21:15;99783.19;;;23.20;47.81
47588;BME280;34356;45.788;12.046;2022-09-09T06:23:43;99780.17;;;22.86;47.88
47588;BME280;34356;45.788;12.046;2022-09-09T06:26:12;99780.50;;;23.30;47.94
47588;BME280;34356;45.788;12.046;2022-09-09T06:28:40;99776.63;;;23.08;48.02
47588;BME280;34356;45.788;12.046;2022-09-09T06:31:09;99777.28;;;23.19;47.89
47588;BME280;34356;45.788;12.046;2022-09-09T06:33:38;99778.36;;;22.96;47.82
47588;BME280;34356;45.788;12.046;2022-09-09T06:36:07;99772.93;;;22.95;47.78
47588;BME280;34356;45.788;12.046;2022-09-09T06:38:37;99770.38;;;23.21;47.87
47588;BME280;34356;45.788;12.046;2022-09-09T06:41:05;99764.46;;;23.37;47.91
47588;BME280;34356;45.788;12.046;2022-09-09T06:43:32;99765.03;;;22.79;48.06
47588;BME280;34356;45.788;12.046;2022-09-09T06:46:02;99761.20;;;23.27;48.13
47588;BME280;34356;45.788;12.046;2022-09-09T06:48:30;99760.82;;;22.83;48.06
47588;BME280;34356;45.788;12.046;2022-09-09T06:51:01;99764.36;;;23.38;48.00
47588;BME280;34356;45.788;12.046;2022-09-09T06:53:29;99768.04;;;22.91;48.00
47588;BME280;34356;45.788;12.046;2022-09-09T06:55:57;99768.45;;;23.52;47.94
47588;BME280;34356;45.788;12.046;2022-09-09T06:58:24;99767.00;;;22.70;47.81
47588;BME280;34356;45.788;12.046;2022-09-09T07:00:51;99760.58;;;23.34;47.49
47588;BME280;34356;45.788;12.046;2022-09-09T07:03:18;99760.66;;;23.59;47.50
47588;BME280;34356;45.788;12.046;2022-09-09T07:05:54;99764.96;;;23.30;47.60
47588;BME280;34356;45.788;12.046;2022-09-09T07:08:23;99767.43;;;23.17;47.48
47588;BME280;34356;45.788;12.046;2022-09-09T07:10:51;99768.32;;;23.49;47.44
47588;BME280;34356;45.788;12.046;2022-09-09T07:13:18;99770.83;;;23.85;47.32
47588;BME280;34356;45.788;12.046;2022-09-09T07:15:46;99766.17;;;23.61;47.36
47588;BME280;34356;45.788;12.046;2022-09-09T07:18:14;99763.06;;;23.74;47.29
47588;BME280;34356;45.788;12.046;2022-09-09T07:20:41;99758.54;;;23.66;47.15
47588;BME280;34356;45.788;12.046;2022-09-09T07:23:07;99753.28;;;23.78;47.08
47588;BME280;34356;45.788;12.046;2022-09-09T07:25:34;99744.73;;;24.10;46.97
47588;BME280;34356;45.788;12.046;2022-09-09T07:28:01;99742.47;;;23.93;46.93
47588;BME280;34356;45.788;12.046;2022-09-09T07:30:29;99742.97;;;23.85;46.75
47588;BME280;34356;45.788;12.046;2022-09-09T07:32:56;99750.36;;;24.15;46.72
47588;BME280;34356;45.788;12.046;2022-09-09T07:35:23;99757.61;;;24.06;46.65
47588;BME280;34356;45.788;12.046;2022-09-09T07:37:50;99757.73;;;24.23;46.48
47588;BME280;34356;45.788;12.046;2022-09-09T07:40:17;99759.27;;;24.42;46.38
47588;BME280;34356;45.788;12.046;2022-09-09T07:42:44;99754.50;;;24.70;46.12
47588;BME280;34356;45.788;12.046;2022-09-09T07:45:11;99746.27;;;24.73;45.65
47588;BME280;34356;45.788;12.046;2022-09-09T07:47:38;99741.50;;;25.26;45.44
47588;BME280;34356;45.788;12.046;2022-09-09T07:50:05;99742.63;;;25.23;45.06
47588;BME280;34356;45.788;12.046;2022-09-09T07:52:34;99741.60;;;25.31;44.74
47588;BME280;34356;45.788;12.046;2022-09-09T07:55:03;99749.62;;;25.61;44.37
47588;BME280;34356;45.788;12.046;2022-09-09T07:57:30;99759.48;;;25.41;44.14
47588;BME280;34356;45.788;12.046;2022-09-09T07:59:57;99759.24;;;26.14;43.87
47588;BME280;34356;45.788;12.046;2022-09-09T08:02:25;99751.25;;;25.86;43.69
47588;BME280;34356;45.788;12.046;2022-09-09T08:04:52;99755.90;;;26.23;43.37
47588;BME280;34356;45.788;12.046;2022-09-09T08:07:19;99759.35;;;26.34;43.37
47588;BME280;34356;45.788;12.046;2022-09-09T08:09:46;99753.46;;;26.47;43.13
47588;BME280;34356;45.788;12.046;2022-09-09T08:12:13;99749.22;;;26.34;42.91
47588;BME280;34356;45.788;12.046;2022-09-09T08:14:40;99743.27;;;26.46;42.75
47588;BME280;34356;45.788;12.046;2022-09-09T08:17:08;99745.09;;;26.60;42.60
47588;BME280;34356;45.788;12.046;2022-09-09T08:19:35;99748.01;;;26.79;42.61
47588;BME280;34356;45.788;12.046;2022-09-09T08:22:02;99756.95;;;26.96;42.33
47588;BME280;34356;45.788;12.046;2022-09-09T08:24:30;99765.09;;;27.14;42.09
47588;BME280;34356;45.788;12.046;2022-09-09T08:26:57;99772.63;;;27.05;41.86
47588;BME280;34356;45.788;12.046;2022-09-09T08:29:24;99768.92;;;26.97;41.41
47588;BME280;34356;45.788;12.046;2022-09-09T08:31:52;99768.67;;;27.12;41.47
47588;BME280;34356;45.788;12.046;2022-09-09T08:34:21;99780.55;;;27.14;41.33
47588;BME280;34356;45.788;12.046;2022-09-09T08:36:49;99796.23;;;26.98;41.30
47588;BME280;34356;45.788;12.046;2022-09-09T08:39:19;99809.81;;;27.19;40.99
47588;BME280;34356;45.788;12.046;2022-09-09T08:42:12;99819.59;;;27.01;41.04
47588;BME280;34356;45.788;12.046;2022-09-09T08:44:55;99823.37;;;26.80;41.33
47588;BME280;34356;45.788;12.046;2022-09-09T08:47:31;99824.45;;;26.18;41.61
47588;BME280;34356;45.788;12.046;2022-09-09T08:50:16;99834.22;;;26.31;41.83
47588;BME280;34356;45.788;12.046;2022-09-09T08:52:53;99832.31;;;26.04;42.42
47588;BME280;34356;45.788;12.046;2022-09-09T08:55:27;99832.43;;;25.73;43.40
47588;BME280;34356;45.788;12.046;2022-09-09T08:57:57;99847.57;;;25.49;44.47
47588;BME280;34356;45.788;12.046;2022-09-09T09:00:31;99837.38;;;24.60;45.53
47588;BME280;34356;45.788;12.046;2022-09-09T09:03:09;99818.29;;;24.31;46.60
47588;BME280;34356;45.788;12.046;2022-09-09T09:05:47;99812.73;;;23.44;47.89
47588;BME280;34356;45.788;12.046;2022-09-09T09:08:24;99810.48;;;23.27;48.20
47588;BME280;34356;45.788;12.046;2022-09-09T09:10:55;99806.73;;;23.49;48.08
47588;BME280;34356;45.788;12.046;2022-09-09T09:13:30;99792.33;;;22.86;47.96
47588;BME280;34356;45.788;12.046;2022-09-09T09:16:11;99792.27;;;22.84;47.85
47588;BME280;34356;45.788;12.046;2022-09-09T09:18:41;99775.84;;;22.85;47.79
47588;BME280;34356;45.788;12.046;2022-09-09T09:21:13;99783.37;;;23.36;47.45
47588;BME280;34356;45.788;12.046;2022-09-09T09:23:45;99786.41;;;23.04;47.10
47588;BME280;34356;45.788;12.046;2022-09-09T09:26:15;99807.40;;;23.08;47.31
47588;BME280;34356;45.788;12.046;2022-09-09T09:28:43;99796.33;;;23.02;47.64
47588;BME280;34356;45.788;12.046;2022-09-09T09:31:12;99799.58;;;22.86;47.73
47588;BME280;34356;45.788;12.046;2022-09-09T09:33:46;99792.41;;;22.77;47.88
47588;BME280;34356;45.788;12.046;2022-09-09T09:36:15;99801.37;;;22.99;47.75
47588;BME280;34356;45.788;12.046;2022-09-09T09:38:54;99804.59;;;23.05;47.97
47588;BME280;34356;45.788;12.046;2022-09-09T09:41:38;99804.67;;;23.14;48.16
47588;BME280;34356;45.788;12.046;2022-09-09T09:44:23;99795.43;;;23.27;48.36
47588;BME280;34356;45.788;12.046;2022-09-09T09:46:50;99792.17;;;23.22;48.44
47588;BME280;34356;45.788;12.046;2022-09-09T09:49:17;99800.69;;;23.62;48.23
47588;BME280;34356;45.788;12.046;2022-09-09T09:51:45;99808.56;;;23.32;48.28
47588;BME280;34356;45.788;12.046;2022-09-09T09:54:18;99803.48;;;23.91;48.25
47588;BME280;34356;45.788;12.046;2022-09-09T09:56:51;99797.43;;;23.60;48.06
47588;BME280;34356;45.788;12.046;2022-09-09T09:59:24;99791.60;;;24.15;48.24
47588;BME280;34356;45.788;12.046;2022-09-09T10:02:13;99791.12;;;23.80;47.89
47588;BME280;34356;45.788;12.046;2022-09-09T10:04:41;99786.34;;;23.87;48.01
47588;BME280;34356;45.788;12.046;2022-09-09T10:07:11;99782.35;;;23.98;47.76
47588;BME280;34356;45.788;12.046;2022-09-09T10:09:39;99776.47;;;24.02;47.81
47588;BME280;34356;45.788;12.046;2022-09-09T10:12:16;99773.84;;;24.11;47.81
47588;BME280;34356;45.788;12.046;2022-09-09T10:14:49;99776.80;;;24.21;47.78
47588;BME280;34356;45.788;12.046;2022-09-09T10:17:29;99775.70;;;24.34;47.73
47588;BME280;34356;45.788;12.046;2022-09-09T10:20:15;99769.16;;;24.44;47.72
47588;BME280;34356;45.788;12.046;2022-09-09T10:22:50;99768.49;;;24.55;47.68
47588;BME280;34356;45.788;12.046;2022-09-09T10:25:27;99760.38;;;24.36;47.66
47588;BME280;34356;45.788;12.046;2022-09-09T10:28:17;99761.49;;;24.26;47.54
47588;BME280;34356;45.788;12.046;2022-09-09T10:30:58;99756.62;;;24.56;47.33
47588;BME280;34356;45.788;12.046;2022-09-09T10:33:32;99752.06;;;24.43;47.37
47588;BME280;34356;45.788;12.046;2022-09-09T10:36:12;99746.51;;;24.73;47.14
47588;BME280;34356;45.788;12.046;2022-09-09T10:38:41;99748.82;;;24.59;46.89
47588;BME280;34356;45.788;12.046;2022-09-09T10:41:16;99746.22;;;25.14;46.78
47588;BME280;34356;45.788;12.046;2022-09-09T10:44:02;99743.73;;;24.60;46.73
47588;BME280;34356;45.788;12.046;2022-09-09T10:46:44;99737.02;;;25.09;46.46
47588;BME280;34356;45.788;12.046;2022-09-09T10:49:23;99742.68;;;25.26;46.36
47588;BME280;34356;45.788;12.046;2022-09-09T10:52:01;99748.91;;;25.47;46.19
47588;BME280;34356;45.788;12.046;2022-09-09T10:54:38;99742.77;;;25.18;46.32
47588;BME280;34356;45.788;12.046;2022-09-09T10:57:12;99737.61;;;26.07;45.88
47588;BME280;34356;45.788;12.046;2022-09-09T10:59:44;99743.46;;;25.93;46.05
47588;BME280;34356;45.788;12.046;2022-09-09T11:02:17;99741.12;;;25.83;45.83
47588;BME280;34356;45.788;12.046;2022-09-09T11:04:51;99738.53;;;26.17;45.69
47588;BME280;34356;45.788;12.046;2022-09-09T11:07:26;99740.68;;;26.06;45.33
47588;BME280;34356;45.788;12.046;2022-09-09T11:10:01;99739.10;;;26.17;45.25
47588;BME280;34356;45.788;12.046;2022-09-09T11:12:30;99740.61;;;26.05;45.22
47588;BME280;34356;45.788;12.046;2022-09-09T11:15:03;99739.37;;;26.20;44.95
47588;BME280;34356;45.788;12.046;2022-09-09T11:17:36;99741.21;;;26.37;44.72
47588;BME280;34356;45.788;12.046;2022-09-09T11:20:12;99744.09;;;26.54;44.37
47588;BME280;34356;45.788;12.046;2022-09-09T11:22:44;99752.61;;;26.67;44.07
47588;BME280;34356;45.788;12.046;2022-09-09T11:25:17;99753.64;;;26.82;43.86
47588;BME280;34356;45.788;12.046;2022-09-09T11:27:58;99748.00;;;26.95;43.62
47588;BME280;34356;45.788;12.046;2022-09-09T11:30:36;99744.83;;;26.85;43.32
47588;BME280;34356;45.788;12.046;2022-09-09T11:33:27;99747.28;;;27.10;43.02
47588;BME280;34356;45.788;12.046;2022-09-09T11:36:11;99743.75;;;27.15;42.94
47588;BME280;34356;45.788;12.046;2022-09-09T11:38:45;99746.27;;;27.21;42.78
47588;BME280;34356;45.788;12.046;2022-09-09T11:41:14;99745.27;;;27.28;42.67
47588;BME280;34356;45.788;12.046;2022-09-09T11:43:44;99742.22;;;27.14;42.60
47588;BME280;34356;45.788;12.046;2022-09-09T11:46:14;99733.49;;;27.25;42.35
47588;BME280;34356;45.788;12.046;2022-09-09T11:48:43;99729.73;;;27.29;42.14
47588;BME280;34356;45.788;12.046;2022-09-09T11:51:24;99727.52;;;27.56;42.07
47588;BME280;34356;45.788;12.046;2022-09-09T11:53:53;99718.63;;;27.14;41.89
47588;BME280;34356;45.788;12.046;2022-09-09T11:56:27;99717.88;;;27.57;41.79
47588;BME280;34356;45.788;12.046;2022-09-09T11:58:58;99717.88;;;27.44;41.66
47588;BME280;34356;45.788;12.046;2022-09-09T12:01:29;99716.18;;;27.51;41.46
47588;BME280;34356;45.788;12.046;2022-09-09T12:04:10;99712.36;;;27.90;41.11
47588;BME280;34356;45.788;12.046;2022-09-09T12:06:44;99709.57;;;27.74;41.27
47588;BME280;34356;45.788;12.046;2022-09-09T12:09:19;99714.25;;;27.69;41.17
47588;BME280;34356;45.788;12.046;2022-09-09T12:11:49;99718.22;;;27.95;40.88
47588;BME280;34356;45.788;12.046;2022-09-09T12:14:22;99722.02;;;28.36;40.62
47588;BME280;34356;45.788;12.046;2022-09-09T12:17:10;99715.30;;;28.14;40.44
47588;BME280;34356;45.788;12.046;2022-09-09T12:19:44;99719.36;;;28.17;40.21
47588;BME280;34356;45.788;12.046;2022-09-09T12:22:18;99717.72;;;27.93;40.27
47588;BME280;34356;45.788;12.046;2022-09-09T12:24:55;99721.58;;;28.38;40.05
47588;BME280;34356;45.788;12.046;2022-09-09T12:27:32;99729.06;;;27.60;40.08
47588;BME280;34356;45.788;12.046;2022-09-09T12:30:04;99729.28;;;28.01;39.84
47588;BME280;34356;45.788;12.046;2022-09-09T12:32:34;99732.35;;;27.98;39.76
47588;BME280;34356;45.788;12.046;2022-09-09T12:35:04;99726.38;;;27.96;39.78
47588;BME280;34356;45.788;12.046;2022-09-09T12:37:38;99724.09;;;27.93;39.78
47588;BME280;34356;45.788;12.046;2022-09-09T12:40:21;99721.90;;;28.38;39.74
47588;BME280;34356;45.788;12.046;2022-09-09T12:42:50;99723.40;;;27.85;39.72
47588;BME280;34356;45.788;12.046;2022-09-09T12:45:20;99726.75;;;27.84;39.69
47588;BME280;34356;45.788;12.046;2022-09-09T12:47:50;99724.41;;;27.83;39.71
47588;BME280;34356;45.788;12.046;2022-09-09T12:50:22;99726.27;;;27.80;39.73
47588;BME280;34356;45.788;12.046;2022-09-09T12:52:51;99734.25;;;27.72;39.71
47588;BME280;34356;45.788;12.046;2022-09-09T12:55:23;99733.32;;;27.93;39.78
47588;BME280;34356;45.788;12.046;2022-09-09T12:57:52;99727.33;;;27.61;39.84
47588;BME280;34356;45.788;12.046;2022-09-09T13:00:21;99726.01;;;27.87;39.85
47588;BME280;34356;45.788;12.046;2022-09-09T13:02:51;99732.64;;;27.79;39.90
47588;BME280;34356;45.788;12.046;2022-09-09T13:05:22;99738.91;;;27.47;40.03
47588;BME280;34356;45.788;12.046;2022-09-09T13:07:50;99733.57;;;27.69;40.18
47588;BME280;34356;45.788;12.046;2022-09-09T13:10:23;99728.71;;;27.62;40.21
47588;BME280;34356;45.788;12.046;2022-09-09T13:12:51;99734.50;;;27.75;40.32